Airfield :
LOGIN :

Register | Disclaimer

   EN    FR    IT 

 










Legend :    VFR   Marginal VFR   IFR   Intensive IFR   Very Intensive IFR
Visi :
Ceiling :
>= 8 km
>= 3000ft
5 to 8 km
1000 to 3000 ft
1500m to 5 km
500 to 1000 ft
800 to 1500m
200 to 500 ft
< 800m
< 200 ft
Symbols :   Thunderstorms  Fog  Heavy snow  Heavy precipitations  Wind > 20 kt
SIGMETs :     Misc.  Thunderstorms  Icing  Turbulence  Mountain Waves  Volcanic Ashes







- Airport Elevation : 1416 ft
- IATA code : ZRH


LSZH - Zurich

CURRENT METAR :
  • 291250Z 27005KT 240V300 CAVOK 30/11 Q1015 NOSIG

EXPIRED METARs :
  • 291220Z VRB03KT CAVOK 29/11 Q1015 NOSIG
  • 291150Z 35003KT 320V060 CAVOK 29/13 Q1016 NOSIG
  • 291120Z VRB03KT CAVOK 28/13 Q1016 NOSIG
  • 291050Z VRB03KT CAVOK 28/13 Q1016 NOSIG
  • 291020Z VRB03KT CAVOK 27/13 Q1017 NOSIG

TAF TAF LSZH
Valid from the 29 at 12:00 until the 30 at 18:00 UTC


291125Z 2912/3018 VRB03KT 9999 FEW060 TX31/2915Z TN14/3004Z TX28/3015Z
TEMPO 2917/3002 24010KT SHRA SCT060TCU
PROB40
TEMPO 2918/2923 24015G30KT 4000 TSRA SCT040CB BKN050
BECMG 3002/3005 CAVOK
BECMG 3009/3011 9999 FEW045
PROB40
TEMPO 3012/3018 29009KT
PROB40
TEMPO 3015/3018 24015G30KT 4000 TSRA SCT040CB BKN050
ATIS : +41 43 816 2295 (DEP) +41 43 816 2294 (ARR)
No reported NOTAMs for that airfield.



MET'MAP, your aeronautical weather chart ! - Copyright ORBIFLY December 2007 - Disclaimer

ORBIFLY MET'MAP TEAM :

Programming & Development : Alexandra Zaïnal
Concept & Development : Baudouin d'Aumeries
Co-Development & Prog : Marc-Olivier Méhu
Technical & hardware support : Manuel Goepfert

Contact : metmap@orbifly.com




SOURCES & CREDITS :

   NOAA